sensor_id;sensor_type;location;lat;lon;timestamp;P1;durP1;ratioP1;P2;durP2;ratioP2
18296;SDS011;18066;52.106;5.534;2023-04-03T00:01:41;2.13;;;1.17;;
18296;SDS011;18066;52.106;5.534;2023-04-03T00:04:08;4.07;;;1.40;;
18296;SDS011;18066;52.106;5.534;2023-04-03T00:06:35;2.30;;;1.00;;
18296;SDS011;18066;52.106;5.534;2023-04-03T00:09:02;1.17;;;0.83;;
18296;SDS011;18066;52.106;5.534;2023-04-03T00:11:29;1.70;;;1.10;;
18296;SDS011;18066;52.106;5.534;2023-04-03T00:13:58;1.80;;;1.13;;
18296;SDS011;18066;52.106;5.534;2023-04-03T00:16:24;3.33;;;1.27;;
18296;SDS011;18066;52.106;5.534;2023-04-03T00:18:51;2.33;;;1.10;;
18296;SDS011;18066;52.106;5.534;2023-04-03T00:21:18;2.00;;;1.00;;
18296;SDS011;18066;52.106;5.534;2023-04-03T00:23:45;4.13;;;1.63;;
18296;SDS011;18066;52.106;5.534;2023-04-03T00:26:12;2.07;;;1.20;;
18296;SDS011;18066;52.106;5.534;2023-04-03T00:28:39;3.30;;;1.70;;
18296;SDS011;18066;52.106;5.534;2023-04-03T00:31:07;2.90;;;1.37;;
18296;SDS011;18066;52.106;5.534;2023-04-03T00:33:34;1.60;;;0.87;;
18296;SDS011;18066;52.106;5.534;2023-04-03T00:36:05;3.80;;;1.70;;
18296;SDS011;18066;52.106;5.534;2023-04-03T00:38:32;2.73;;;1.17;;
18296;SDS011;18066;52.106;5.534;2023-04-03T00:40:59;1.60;;;1.00;;
18296;SDS011;18066;52.106;5.534;2023-04-03T00:43:26;1.93;;;1.10;;
18296;SDS011;18066;52.106;5.534;2023-04-03T00:45:54;4.80;;;1.20;;
18296;SDS011;18066;52.106;5.534;2023-04-03T00:48:24;4.70;;;1.30;;
18296;SDS011;18066;52.106;5.534;2023-04-03T00:50:54;2.57;;;1.30;;
18296;SDS011;18066;52.106;5.534;2023-04-03T00:53:23;3.33;;;1.37;;
18296;SDS011;18066;52.106;5.534;2023-04-03T00:55:52;3.80;;;1.10;;
18296;SDS011;18066;52.106;5.534;2023-04-03T00:58:20;2.87;;;1.30;;
18296;SDS011;18066;52.106;5.534;2023-04-03T01:00:53;1.47;;;1.00;;
18296;SDS011;18066;52.106;5.534;2023-04-03T01:03:25;1.77;;;1.10;;
18296;SDS011;18066;52.106;5.534;2023-04-03T01:05:52;1.63;;;1.20;;
18296;SDS011;18066;52.106;5.534;2023-04-03T01:08:19;3.50;;;1.10;;
18296;SDS011;18066;52.106;5.534;2023-04-03T01:10:46;3.60;;;1.07;;
18296;SDS011;18066;52.106;5.534;2023-04-03T01:13:18;2.20;;;1.37;;
18296;SDS011;18066;52.106;5.534;2023-04-03T01:15:48;2.50;;;1.40;;
18296;SDS011;18066;52.106;5.534;2023-04-03T01:18:15;5.57;;;1.23;;
18296;SDS011;18066;52.106;5.534;2023-04-03T01:23:43;3.58;;;1.45;;
18296;SDS011;18066;52.106;5.534;2023-04-03T01:26:18;1.87;;;1.03;;
18296;SDS011;18066;52.106;5.534;2023-04-03T01:28:46;3.67;;;1.57;;
18296;SDS011;18066;52.106;5.534;2023-04-03T01:31:15;1.47;;;1.20;;
18296;SDS011;18066;52.106;5.534;2023-04-03T01:33:47;2.30;;;1.30;;
18296;SDS011;18066;52.106;5.534;2023-04-03T01:36:15;2.83;;;1.40;;
18296;SDS011;18066;52.106;5.534;2023-04-03T01:38:44;2.60;;;1.17;;
18296;SDS011;18066;52.106;5.534;2023-04-03T01:41:11;2.90;;;1.37;;
18296;SDS011;18066;52.106;5.534;2023-04-03T01:43:38;1.67;;;1.23;;
18296;SDS011;18066;52.106;5.534;2023-04-03T01:46:05;6.03;;;1.50;;
18296;SDS011;18066;52.106;5.534;2023-04-03T01:48:32;1.63;;;1.30;;
18296;SDS011;18066;52.106;5.534;2023-04-03T01:51:01;8.57;;;1.30;;
18296;SDS011;18066;52.106;5.534;2023-04-03T01:53:28;5.43;;;1.40;;
18296;SDS011;18066;52.106;5.534;2023-04-03T01:55:55;3.77;;;1.40;;
18296;SDS011;18066;52.106;5.534;2023-04-03T01:58:22;1.43;;;1.10;;
18296;SDS011;18066;52.106;5.534;2023-04-03T02:00:49;6.07;;;1.47;;
18296;SDS011;18066;52.106;5.534;2023-04-03T02:03:16;3.97;;;1.43;;
18296;SDS011;18066;52.106;5.534;2023-04-03T02:05:42;1.73;;;1.13;;
18296;SDS011;18066;52.106;5.534;2023-04-03T02:08:11;5.23;;;1.83;;
18296;SDS011;18066;52.106;5.534;2023-04-03T02:10:38;4.93;;;1.17;;
18296;SDS011;18066;52.106;5.534;2023-04-03T02:13:06;2.87;;;1.60;;
18296;SDS011;18066;52.106;5.534;2023-04-03T02:15:32;3.03;;;1.40;;
18296;SDS011;18066;52.106;5.534;2023-04-03T02:17:59;3.17;;;1.40;;
18296;SDS011;18066;52.106;5.534;2023-04-03T02:20:26;3.57;;;1.47;;
18296;SDS011;18066;52.106;5.534;2023-04-03T02:22:53;2.50;;;1.30;;
18296;SDS011;18066;52.106;5.534;2023-04-03T02:25:21;6.93;;;1.80;;
18296;SDS011;18066;52.106;5.534;2023-04-03T02:27:48;3.93;;;1.27;;
18296;SDS011;18066;52.106;5.534;2023-04-03T02:30:15;4.07;;;1.23;;
18296;SDS011;18066;52.106;5.534;2023-04-03T02:32:42;5.33;;;1.60;;
18296;SDS011;18066;52.106;5.534;2023-04-03T02:35:10;3.03;;;1.50;;
18296;SDS011;18066;52.106;5.534;2023-04-03T02:37:37;6.77;;;2.10;;
18296;SDS011;18066;52.106;5.534;2023-04-03T02:40:05;1.70;;;1.20;;
18296;SDS011;18066;52.106;5.534;2023-04-03T02:42:34;3.50;;;1.50;;
18296;SDS011;18066;52.106;5.534;2023-04-03T02:45:01;3.47;;;1.60;;
18296;SDS011;18066;52.106;5.534;2023-04-03T02:47:28;5.03;;;1.30;;
18296;SDS011;18066;52.106;5.534;2023-04-03T02:49:55;2.57;;;1.33;;
18296;SDS011;18066;52.106;5.534;2023-04-03T02:52:22;10.18;;;1.90;;
18296;SDS011;18066;52.106;5.534;2023-04-03T02:54:49;3.07;;;1.40;;
18296;SDS011;18066;52.106;5.534;2023-04-03T02:57:16;2.77;;;1.70;;
18296;SDS011;18066;52.106;5.534;2023-04-03T02:59:46;4.90;;;1.60;;
18296;SDS011;18066;52.106;5.534;2023-04-03T03:02:13;3.50;;;1.47;;
18296;SDS011;18066;52.106;5.534;2023-04-03T03:04:40;4.03;;;1.50;;
18296;SDS011;18066;52.106;5.534;2023-04-03T03:07:07;7.53;;;1.95;;
18296;SDS011;18066;52.106;5.534;2023-04-03T03:09:34;2.70;;;1.50;;
18296;SDS011;18066;52.106;5.534;2023-04-03T03:12:01;2.23;;;1.40;;
18296;SDS011;18066;52.106;5.534;2023-04-03T03:14:28;2.10;;;1.40;;
18296;SDS011;18066;52.106;5.534;2023-04-03T03:16:57;3.20;;;1.50;;
18296;SDS011;18066;52.106;5.534;2023-04-03T03:19:24;3.00;;;1.43;;
18296;SDS011;18066;52.106;5.534;2023-04-03T03:21:50;6.32;;;2.30;;
18296;SDS011;18066;52.106;5.534;2023-04-03T03:24:17;5.23;;;1.50;;
18296;SDS011;18066;52.106;5.534;2023-04-03T03:26:45;6.60;;;1.90;;
18296;SDS011;18066;52.106;5.534;2023-04-03T03:29:12;3.87;;;1.87;;
18296;SDS011;18066;52.106;5.534;2023-04-03T03:31:39;5.30;;;1.97;;
18296;SDS011;18066;52.106;5.534;2023-04-03T03:34:07;3.20;;;1.90;;
18296;SDS011;18066;52.106;5.534;2023-04-03T03:36:34;3.60;;;1.50;;
18296;SDS011;18066;52.106;5.534;2023-04-03T03:39:01;4.57;;;1.67;;
18296;SDS011;18066;52.106;5.534;2023-04-03T03:41:28;2.87;;;1.43;;
18296;SDS011;18066;52.106;5.534;2023-04-03T03:43:56;4.87;;;1.80;;
18296;SDS011;18066;52.106;5.534;2023-04-03T03:46:23;6.40;;;1.90;;
18296;SDS011;18066;52.106;5.534;2023-04-03T03:48:50;3.23;;;1.50;;
18296;SDS011;18066;52.106;5.534;2023-04-03T03:51:18;5.25;;;2.20;;
18296;SDS011;18066;52.106;5.534;2023-04-03T03:53:45;3.63;;;1.77;;
18296;SDS011;18066;52.106;5.534;2023-04-03T03:56:12;6.40;;;2.13;;
18296;SDS011;18066;52.106;5.534;2023-04-03T03:58:39;4.57;;;2.00;;
18296;SDS011;18066;52.106;5.534;2023-04-03T04:01:06;6.03;;;1.60;;
18296;SDS011;18066;52.106;5.534;2023-04-03T04:03:33;3.73;;;1.50;;
18296;SDS011;18066;52.106;5.534;2023-04-03T04:06:00;5.65;;;2.08;;
18296;SDS011;18066;52.106;5.534;2023-04-03T04:08:28;2.97;;;1.40;;
18296;SDS011;18066;52.106;5.534;2023-04-03T04:10:55;4.37;;;1.60;;
18296;SDS011;18066;52.106;5.534;2023-04-03T04:13:22;5.80;;;1.63;;
18296;SDS011;18066;52.106;5.534;2023-04-03T04:15:49;2.43;;;1.40;;
18296;SDS011;18066;52.106;5.534;2023-04-03T04:18:16;6.27;;;2.00;;
18296;SDS011;18066;52.106;5.534;2023-04-03T04:20:45;6.77;;;1.83;;
18296;SDS011;18066;52.106;5.534;2023-04-03T04:23:12;2.70;;;1.53;;
18296;SDS011;18066;52.106;5.534;2023-04-03T04:25:40;6.70;;;1.80;;
18296;SDS011;18066;52.106;5.534;2023-04-03T04:28:07;2.90;;;1.90;;
18296;SDS011;18066;52.106;5.534;2023-04-03T04:30:34;3.80;;;1.77;;
18296;SDS011;18066;52.106;5.534;2023-04-03T04:33:01;5.03;;;1.67;;
18296;SDS011;18066;52.106;5.534;2023-04-03T04:35:28;6.18;;;2.58;;
18296;SDS011;18066;52.106;5.534;2023-04-03T04:37:55;4.83;;;2.10;;
18296;SDS011;18066;52.106;5.534;2023-04-03T04:40:22;4.43;;;2.40;;
18296;SDS011;18066;52.106;5.534;2023-04-03T04:42:50;5.13;;;1.50;;
18296;SDS011;18066;52.106;5.534;2023-04-03T04:45:17;4.73;;;2.60;;
18296;SDS011;18066;52.106;5.534;2023-04-03T04:47:44;6.60;;;2.27;;
18296;SDS011;18066;52.106;5.534;2023-04-03T04:50:11;5.45;;;2.67;;
18296;SDS011;18066;52.106;5.534;2023-04-03T04:52:38;8.47;;;2.50;;
18296;SDS011;18066;52.106;5.534;2023-04-03T04:55:06;5.50;;;2.37;;
18296;SDS011;18066;52.106;5.534;2023-04-03T04:57:33;5.13;;;2.30;;
18296;SDS011;18066;52.106;5.534;2023-04-03T05:00:03;8.13;;;2.10;;
18296;SDS011;18066;52.106;5.534;2023-04-03T05:02:32;4.37;;;2.00;;
18296;SDS011;18066;52.106;5.534;2023-04-03T05:04:58;9.82;;;3.00;;
18296;SDS011;18066;52.106;5.534;2023-04-03T05:07:25;7.60;;;1.97;;
18296;SDS011;18066;52.106;5.534;2023-04-03T05:09:52;6.53;;;1.50;;
18296;SDS011;18066;52.106;5.534;2023-04-03T05:12:19;6.47;;;1.50;;
18296;SDS011;18066;52.106;5.534;2023-04-03T05:14:46;3.37;;;1.70;;
18296;SDS011;18066;52.106;5.534;2023-04-03T05:17:14;4.93;;;2.03;;
18296;SDS011;18066;52.106;5.534;2023-04-03T05:19:41;38.92;;;3.50;;
18296;SDS011;18066;52.106;5.534;2023-04-03T05:22:08;4.57;;;1.97;;
18296;SDS011;18066;52.106;5.534;2023-04-03T05:24:35;4.57;;;2.17;;
18296;SDS011;18066;52.106;5.534;2023-04-03T05:27:02;5.00;;;1.90;;
18296;SDS011;18066;52.106;5.534;2023-04-03T05:29:29;3.60;;;1.90;;
18296;SDS011;18066;52.106;5.534;2023-04-03T05:31:55;6.50;;;2.10;;
18296;SDS011;18066;52.106;5.534;2023-04-03T05:34:24;9.82;;;2.72;;
18296;SDS011;18066;52.106;5.534;2023-04-03T05:36:50;3.90;;;1.87;;
18296;SDS011;18066;52.106;5.534;2023-04-03T05:39:18;14.43;;;2.97;;
18296;SDS011;18066;52.106;5.534;2023-04-03T05:41:45;8.57;;;2.80;;
18296;SDS011;18066;52.106;5.534;2023-04-03T05:44:11;8.53;;;2.30;;
18296;SDS011;18066;52.106;5.534;2023-04-03T05:46:38;10.17;;;2.30;;
18296;SDS011;18066;52.106;5.534;2023-04-03T05:49:06;8.10;;;3.20;;
18296;SDS011;18066;52.106;5.534;2023-04-03T05:51:35;7.53;;;2.90;;
18296;SDS011;18066;52.106;5.534;2023-04-03T05:54:04;12.03;;;3.30;;
18296;SDS011;18066;52.106;5.534;2023-04-03T05:56:35;7.47;;;2.83;;
18296;SDS011;18066;52.106;5.534;2023-04-03T05:59:02;7.73;;;2.63;;
18296;SDS011;18066;52.106;5.534;2023-04-03T06:01:29;10.17;;;3.20;;
18296;SDS011;18066;52.106;5.534;2023-04-03T06:03:56;8.80;;;3.47;;
18296;SDS011;18066;52.106;5.534;2023-04-03T06:06:23;7.67;;;2.90;;
18296;SDS011;18066;52.106;5.534;2023-04-03T06:08:51;9.23;;;2.53;;
18296;SDS011;18066;52.106;5.534;2023-04-03T06:11:18;5.60;;;2.53;;
18296;SDS011;18066;52.106;5.534;2023-04-03T06:13:46;6.27;;;2.63;;
18296;SDS011;18066;52.106;5.534;2023-04-03T06:16:13;9.03;;;2.13;;
18296;SDS011;18066;52.106;5.534;2023-04-03T06:18:41;6.57;;;2.55;;
18296;SDS011;18066;52.106;5.534;2023-04-03T06:21:08;4.50;;;1.90;;
18296;SDS011;18066;52.106;5.534;2023-04-03T06:23:34;7.73;;;1.93;;
18296;SDS011;18066;52.106;5.534;2023-04-03T06:26:04;4.20;;;2.07;;
18296;SDS011;18066;52.106;5.534;2023-04-03T06:28:32;5.83;;;1.80;;
18296;SDS011;18066;52.106;5.534;2023-04-03T06:30:58;11.37;;;2.47;;
18296;SDS011;18066;52.106;5.534;2023-04-03T06:33:25;6.07;;;2.25;;
18296;SDS011;18066;52.106;5.534;2023-04-03T06:35:55;5.27;;;2.47;;
18296;SDS011;18066;52.106;5.534;2023-04-03T06:38:23;4.47;;;2.20;;
18296;SDS011;18066;52.106;5.534;2023-04-03T06:40:50;2.77;;;1.60;;
18296;SDS011;18066;52.106;5.534;2023-04-03T06:43:19;8.53;;;2.17;;
18296;SDS011;18066;52.106;5.534;2023-04-03T06:45:46;6.20;;;2.03;;
18296;SDS011;18066;52.106;5.534;2023-04-03T06:48:13;6.57;;;2.40;;
18296;SDS011;18066;52.106;5.534;2023-04-03T06:50:40;7.67;;;2.50;;
18296;SDS011;18066;52.106;5.534;2023-04-03T06:53:07;9.57;;;2.80;;
18296;SDS011;18066;52.106;5.534;2023-04-03T06:55:34;6.77;;;1.60;;
18296;SDS011;18066;52.106;5.534;2023-04-03T06:58:01;4.27;;;1.70;;
18296;SDS011;18066;52.106;5.534;2023-04-03T07:00:30;5.47;;;2.10;;
18296;SDS011;18066;52.106;5.534;2023-04-03T07:02:57;4.85;;;2.22;;
18296;SDS011;18066;52.106;5.534;2023-04-03T07:05:24;3.73;;;1.83;;
18296;SDS011;18066;52.106;5.534;2023-04-03T07:07:51;4.63;;;2.07;;
18296;SDS011;18066;52.106;5.534;2023-04-03T07:10:18;4.13;;;1.87;;
18296;SDS011;18066;52.106;5.534;2023-04-03T07:12:45;3.27;;;2.00;;
18296;SDS011;18066;52.106;5.534;2023-04-03T07:15:12;2.50;;;1.53;;
18296;SDS011;18066;52.106;5.534;2023-04-03T07:17:41;5.20;;;2.00;;
18296;SDS011;18066;52.106;5.534;2023-04-03T07:20:09;5.43;;;1.85;;
18296;SDS011;18066;52.106;5.534;2023-04-03T07:22:36;6.30;;;1.77;;
18296;SDS011;18066;52.106;5.534;2023-04-03T07:25:04;4.03;;;1.80;;
18296;SDS011;18066;52.106;5.534;2023-04-03T07:27:32;5.80;;;1.83;;
18296;SDS011;18066;52.106;5.534;2023-04-03T07:29:59;5.93;;;1.80;;
18296;SDS011;18066;52.106;5.534;2023-04-03T07:32:26;3.63;;;1.57;;
18296;SDS011;18066;52.106;5.534;2023-04-03T07:34:54;4.80;;;2.03;;
18296;SDS011;18066;52.106;5.534;2023-04-03T07:37:21;5.85;;;1.80;;
18296;SDS011;18066;52.106;5.534;2023-04-03T07:39:48;3.57;;;1.70;;
18296;SDS011;18066;52.106;5.534;2023-04-03T07:42:16;3.70;;;1.53;;
18296;SDS011;18066;52.106;5.534;2023-04-03T07:44:43;4.73;;;1.50;;
18296;SDS011;18066;52.106;5.534;2023-04-03T07:47:10;2.37;;;1.30;;
18296;SDS011;18066;52.106;5.534;2023-04-03T07:49:39;4.38;;;1.60;;
18296;SDS011;18066;52.106;5.534;2023-04-03T07:52:07;7.03;;;1.80;;
18296;SDS011;18066;52.106;5.534;2023-04-03T07:54:35;8.03;;;1.47;;
18296;SDS011;18066;52.106;5.534;2023-04-03T07:57:02;3.60;;;1.37;;
18296;SDS011;18066;52.106;5.534;2023-04-03T07:59:30;5.00;;;1.40;;
18296;SDS011;18066;52.106;5.534;2023-04-03T08:01:57;2.50;;;1.27;;
18296;SDS011;18066;52.106;5.534;2023-04-03T08:04:24;5.00;;;1.13;;
18296;SDS011;18066;52.106;5.534;2023-04-03T08:06:51;4.40;;;1.20;;
18296;SDS011;18066;52.106;5.534;2023-04-03T08:09:19;2.60;;;1.13;;
18296;SDS011;18066;52.106;5.534;2023-04-03T08:11:47;2.67;;;1.30;;
18296;SDS011;18066;52.106;5.534;2023-04-03T08:14:13;5.00;;;1.33;;
18296;SDS011;18066;52.106;5.534;2023-04-03T08:16:43;3.03;;;0.80;;
18296;SDS011;18066;52.106;5.534;2023-04-03T08:19:14;3.67;;;1.30;;
18296;SDS011;18066;52.106;5.534;2023-04-03T08:21:43;3.67;;;1.00;;
18296;SDS011;18066;52.106;5.534;2023-04-03T08:24:10;2.60;;;1.07;;
18296;SDS011;18066;52.106;5.534;2023-04-03T08:26:39;2.77;;;1.07;;
18296;SDS011;18066;52.106;5.534;2023-04-03T08:29:05;3.10;;;1.13;;
18296;SDS011;18066;52.106;5.534;2023-04-03T08:31:32;4.63;;;1.00;;
18296;SDS011;18066;52.106;5.534;2023-04-03T08:33:59;1.70;;;0.90;;
18296;SDS011;18066;52.106;5.534;2023-04-03T08:36:27;2.33;;;1.07;;
18296;SDS011;18066;52.106;5.534;2023-04-03T08:38:55;1.97;;;1.00;;
18296;SDS011;18066;52.106;5.534;2023-04-03T08:41:25;3.10;;;1.10;;
18296;SDS011;18066;52.106;5.534;2023-04-03T08:44:00;1.70;;;0.70;;
18296;SDS011;18066;52.106;5.534;2023-04-03T08:46:35;2.20;;;0.50;;
18296;SDS011;18066;52.106;5.534;2023-04-03T08:49:10;4.00;;;0.83;;
18296;SDS011;18066;52.106;5.534;2023-04-03T08:51:41;2.83;;;0.83;;
18296;SDS011;18066;52.106;5.534;2023-04-03T08:54:15;2.30;;;0.97;;
18296;SDS011;18066;52.106;5.534;2023-04-03T08:56:52;1.23;;;0.63;;
18296;SDS011;18066;52.106;5.534;2023-04-03T08:59:24;2.47;;;0.90;;
18296;SDS011;18066;52.106;5.534;2023-04-03T09:01:55;1.65;;;0.50;;
18296;SDS011;18066;52.106;5.534;2023-04-03T09:04:24;1.37;;;0.67;;
18296;SDS011;18066;52.106;5.534;2023-04-03T09:06:54;1.00;;;0.50;;
18296;SDS011;18066;52.106;5.534;2023-04-03T09:09:27;1.00;;;0.57;;
18296;SDS011;18066;52.106;5.534;2023-04-03T09:12:00;0.70;;;0.50;;
18296;SDS011;18066;52.106;5.534;2023-04-03T09:14:41;2.42;;;0.80;;
18296;SDS011;18066;52.106;5.534;2023-04-03T09:17:18;1.37;;;0.50;;
18296;SDS011;18066;52.106;5.534;2023-04-03T09:19:54;1.60;;;0.57;;
18296;SDS011;18066;52.106;5.534;2023-04-03T09:22:28;1.17;;;0.33;;
18296;SDS011;18066;52.106;5.534;2023-04-03T09:24:59;0.90;;;0.40;;
18296;SDS011;18066;52.106;5.534;2023-04-03T09:27:32;1.10;;;0.40;;
18296;SDS011;18066;52.106;5.534;2023-04-03T09:30:01;0.90;;;0.40;;
18296;SDS011;18066;52.106;5.534;2023-04-03T09:32:30;1.03;;;0.50;;
18296;SDS011;18066;52.106;5.534;2023-04-03T09:35:01;0.30;;;0.30;;
18296;SDS011;18066;52.106;5.534;2023-04-03T09:37:34;0.50;;;0.37;;
18296;SDS011;18066;52.106;5.534;2023-04-03T09:40:06;0.30;;;0.30;;
18296;SDS011;18066;52.106;5.534;2023-04-03T09:43:00;1.13;;;0.37;;
18296;SDS011;18066;52.106;5.534;2023-04-03T09:45:29;0.57;;;0.30;;
18296;SDS011;18066;52.106;5.534;2023-04-03T09:48:07;0.83;;;0.30;;
18296;SDS011;18066;52.106;5.534;2023-04-03T09:50:52;0.90;;;0.20;;
18296;SDS011;18066;52.106;5.534;2023-04-03T09:53:33;0.40;;;0.40;;
18296;SDS011;18066;52.106;5.534;2023-04-03T09:56:04;1.27;;;0.30;;
18296;SDS011;18066;52.106;5.534;2023-04-03T09:58:47;1.13;;;0.40;;
18296;SDS011;18066;52.106;5.534;2023-04-03T10:01:23;1.60;;;0.50;;
18296;SDS011;18066;52.106;5.534;2023-04-03T10:04:06;1.57;;;0.30;;
18296;SDS011;18066;52.106;5.534;2023-04-03T10:06:35;1.17;;;0.40;;
18296;SDS011;18066;52.106;5.534;2023-04-03T10:09:15;0.87;;;0.30;;
18296;SDS011;18066;52.106;5.534;2023-04-03T10:14:34;4.13;;;0.37;;
18296;SDS011;18066;52.106;5.534;2023-04-03T10:17:05;1.90;;;0.20;;
18296;SDS011;18066;52.106;5.534;2023-04-03T10:19:40;1.27;;;0.50;;
18296;SDS011;18066;52.106;5.534;2023-04-03T10:22:13;1.13;;;0.23;;
18296;SDS011;18066;52.106;5.534;2023-04-03T10:24:53;2.63;;;0.30;;
18296;SDS011;18066;52.106;5.534;2023-04-03T10:27:33;0.80;;;0.50;;
18296;SDS011;18066;52.106;5.534;2023-04-03T10:30:13;1.67;;;0.40;;
18296;SDS011;18066;52.106;5.534;2023-04-03T10:32:54;0.30;;;0.30;;
18296;SDS011;18066;52.106;5.534;2023-04-03T10:35:30;0.60;;;0.43;;
18296;SDS011;18066;52.106;5.534;2023-04-03T10:38:08;1.47;;;0.40;;
18296;SDS011;18066;52.106;5.534;2023-04-03T10:40:44;1.80;;;0.40;;
18296;SDS011;18066;52.106;5.534;2023-04-03T10:43:21;1.97;;;0.33;;
18296;SDS011;18066;52.106;5.534;2023-04-03T10:45:56;1.07;;;0.30;;
18296;SDS011;18066;52.106;5.534;2023-04-03T10:48:31;3.60;;;0.40;;
18296;SDS011;18066;52.106;5.534;2023-04-03T10:51:14;1.83;;;0.60;;
18296;SDS011;18066;52.106;5.534;2023-04-03T10:53:51;1.70;;;0.70;;
18296;SDS011;18066;52.106;5.534;2023-04-03T10:56:25;0.40;;;0.40;;
18296;SDS011;18066;52.106;5.534;2023-04-03T10:58:58;0.57;;;0.40;;
18296;SDS011;18066;52.106;5.534;2023-04-03T11:01:35;0.50;;;0.40;;
18296;SDS011;18066;52.106;5.534;2023-04-03T11:04:05;1.03;;;0.60;;
18296;SDS011;18066;52.106;5.534;2023-04-03T11:06:34;4.43;;;1.33;;
18296;SDS011;18066;52.106;5.534;2023-04-03T11:09:07;1.60;;;0.60;;
18296;SDS011;18066;52.106;5.534;2023-04-03T11:11:43;1.10;;;0.50;;
18296;SDS011;18066;52.106;5.534;2023-04-03T11:14:15;0.80;;;0.30;;
18296;SDS011;18066;52.106;5.534;2023-04-03T11:16:49;1.03;;;0.47;;
18296;SDS011;18066;52.106;5.534;2023-04-03T11:19:25;6.10;;;0.80;;
18296;SDS011;18066;52.106;5.534;2023-04-03T11:22:00;0.50;;;0.47;;
18296;SDS011;18066;52.106;5.534;2023-04-03T11:24:32;1.47;;;0.40;;
18296;SDS011;18066;52.106;5.534;2023-04-03T11:27:00;1.23;;;0.50;;
18296;SDS011;18066;52.106;5.534;2023-04-03T11:29:32;1.33;;;0.50;;
18296;SDS011;18066;52.106;5.534;2023-04-03T11:32:08;2.37;;;0.60;;
18296;SDS011;18066;52.106;5.534;2023-04-03T11:34:47;1.43;;;0.63;;
18296;SDS011;18066;52.106;5.534;2023-04-03T11:37:27;1.67;;;0.93;;
18296;SDS011;18066;52.106;5.534;2023-04-03T11:39:59;1.13;;;0.63;;
18296;SDS011;18066;52.106;5.534;2023-04-03T11:42:31;2.00;;;0.40;;
18296;SDS011;18066;52.106;5.534;2023-04-03T11:45:22;0.80;;;0.70;;
18296;SDS011;18066;52.106;5.534;2023-04-03T11:47:58;1.30;;;0.70;;
18296;SDS011;18066;52.106;5.534;2023-04-03T11:50:39;2.67;;;0.87;;
18296;SDS011;18066;52.106;5.534;2023-04-03T11:56:26;1.17;;;0.60;;
18296;SDS011;18066;52.106;5.534;2023-04-03T11:59:19;1.33;;;0.40;;
18296;SDS011;18066;52.106;5.534;2023-04-03T12:01:49;2.00;;;0.80;;
18296;SDS011;18066;52.106;5.534;2023-04-03T12:04:17;3.40;;;0.60;;
18296;SDS011;18066;52.106;5.534;2023-04-03T12:06:50;1.67;;;0.60;;
18296;SDS011;18066;52.106;5.534;2023-04-03T12:09:25;2.25;;;0.70;;
18296;SDS011;18066;52.106;5.534;2023-04-03T12:11:57;0.93;;;0.53;;
18296;SDS011;18066;52.106;5.534;2023-04-03T12:14:26;1.73;;;0.70;;
18296;SDS011;18066;52.106;5.534;2023-04-03T12:16:54;1.70;;;0.60;;
18296;SDS011;18066;52.106;5.534;2023-04-03T12:19:33;3.23;;;0.97;;
18296;SDS011;18066;52.106;5.534;2023-04-03T12:22:06;2.63;;;0.50;;
18296;SDS011;18066;52.106;5.534;2023-04-03T12:24:35;1.23;;;0.40;;
18296;SDS011;18066;52.106;5.534;2023-04-03T12:27:09;1.27;;;0.77;;
18296;SDS011;18066;52.106;5.534;2023-04-03T12:29:47;1.70;;;0.65;;
18296;SDS011;18066;52.106;5.534;2023-04-03T12:32:24;4.33;;;0.50;;
18296;SDS011;18066;52.106;5.534;2023-04-03T12:35:08;1.13;;;0.50;;
18296;SDS011;18066;52.106;5.534;2023-04-03T12:37:48;0.80;;;0.53;;
18296;SDS011;18066;52.106;5.534;2023-04-03T12:40:42;2.27;;;0.73;;
18296;SDS011;18066;52.106;5.534;2023-04-03T12:46:11;3.50;;;0.90;;
18296;SDS011;18066;52.106;5.534;2023-04-03T12:48:46;0.77;;;0.53;;
18296;SDS011;18066;52.106;5.534;2023-04-03T12:51:15;1.27;;;0.60;;
18296;SDS011;18066;52.106;5.534;2023-04-03T12:53:45;2.80;;;0.67;;
18296;SDS011;18066;52.106;5.534;2023-04-03T12:56:21;0.97;;;0.70;;
18296;SDS011;18066;52.106;5.534;2023-04-03T12:58:52;2.20;;;0.67;;
18296;SDS011;18066;52.106;5.534;2023-04-03T13:01:20;0.83;;;0.60;;
18296;SDS011;18066;52.106;5.534;2023-04-03T13:03:49;1.70;;;0.83;;
18296;SDS011;18066;52.106;5.534;2023-04-03T13:06:19;2.30;;;0.50;;
18296;SDS011;18066;52.106;5.534;2023-04-03T13:08:49;2.70;;;0.80;;
18296;SDS011;18066;52.106;5.534;2023-04-03T13:11:18;2.30;;;0.80;;
18296;SDS011;18066;52.106;5.534;2023-04-03T13:13:55;2.30;;;0.80;;
18296;SDS011;18066;52.106;5.534;2023-04-03T13:16:23;1.10;;;0.60;;
18296;SDS011;18066;52.106;5.534;2023-04-03T13:18:51;2.53;;;1.00;;
18296;SDS011;18066;52.106;5.534;2023-04-03T13:21:20;2.73;;;0.80;;
18296;SDS011;18066;52.106;5.534;2023-04-03T13:23:50;1.03;;;0.60;;
18296;SDS011;18066;52.106;5.534;2023-04-03T13:26:19;2.33;;;0.90;;
18296;SDS011;18066;52.106;5.534;2023-04-03T13:28:48;2.05;;;0.93;;
18296;SDS011;18066;52.106;5.534;2023-04-03T13:31:19;1.57;;;0.80;;
18296;SDS011;18066;52.106;5.534;2023-04-03T13:33:53;7.07;;;1.00;;
18296;SDS011;18066;52.106;5.534;2023-04-03T13:36:23;2.43;;;0.60;;
18296;SDS011;18066;52.106;5.534;2023-04-03T13:39:01;3.23;;;1.00;;
18296;SDS011;18066;52.106;5.534;2023-04-03T13:41:31;1.30;;;0.60;;
18296;SDS011;18066;52.106;5.534;2023-04-03T13:44:16;2.15;;;0.85;;
18296;SDS011;18066;52.106;5.534;2023-04-03T13:46:53;2.57;;;0.63;;
18296;SDS011;18066;52.106;5.534;2023-04-03T13:49:22;1.40;;;0.80;;
18296;SDS011;18066;52.106;5.534;2023-04-03T13:51:55;1.03;;;0.80;;
18296;SDS011;18066;52.106;5.534;2023-04-03T13:54:23;4.10;;;0.87;;
18296;SDS011;18066;52.106;5.534;2023-04-03T13:56:55;2.83;;;0.97;;
18296;SDS011;18066;52.106;5.534;2023-04-03T13:59:25;2.60;;;1.00;;
18296;SDS011;18066;52.106;5.534;2023-04-03T14:02:09;0.93;;;0.83;;
18296;SDS011;18066;52.106;5.534;2023-04-03T14:04:48;2.83;;;0.90;;
18296;SDS011;18066;52.106;5.534;2023-04-03T14:07:23;2.83;;;1.00;;
18296;SDS011;18066;52.106;5.534;2023-04-03T14:09:50;2.23;;;0.70;;
18296;SDS011;18066;52.106;5.534;2023-04-03T14:12:18;3.47;;;0.98;;
18296;SDS011;18066;52.106;5.534;2023-04-03T14:14:51;1.60;;;0.80;;
18296;SDS011;18066;52.106;5.534;2023-04-03T14:17:20;1.53;;;0.87;;
18296;SDS011;18066;52.106;5.534;2023-04-03T14:19:49;2.10;;;0.97;;
18296;SDS011;18066;52.106;5.534;2023-04-03T14:22:18;2.83;;;0.90;;
18296;SDS011;18066;52.106;5.534;2023-04-03T14:24:48;1.90;;;0.80;;
18296;SDS011;18066;52.106;5.534;2023-04-03T14:27:17;1.77;;;0.63;;
18296;SDS011;18066;52.106;5.534;2023-04-03T14:29:46;1.30;;;0.93;;
18296;SDS011;18066;52.106;5.534;2023-04-03T14:32:14;1.53;;;0.77;;
18296;SDS011;18066;52.106;5.534;2023-04-03T14:34:44;1.73;;;1.00;;
18296;SDS011;18066;52.106;5.534;2023-04-03T14:37:14;0.97;;;0.70;;
18296;SDS011;18066;52.106;5.534;2023-04-03T14:39:43;3.00;;;1.00;;
18296;SDS011;18066;52.106;5.534;2023-04-03T14:42:15;1.37;;;0.67;;
18296;SDS011;18066;52.106;5.534;2023-04-03T14:44:43;1.97;;;0.87;;
18296;SDS011;18066;52.106;5.534;2023-04-03T14:47:11;3.33;;;0.70;;
18296;SDS011;18066;52.106;5.534;2023-04-03T14:49:39;3.47;;;1.07;;
18296;SDS011;18066;52.106;5.534;2023-04-03T14:52:09;1.73;;;0.90;;
18296;SDS011;18066;52.106;5.534;2023-04-03T14:54:44;4.20;;;1.00;;
18296;SDS011;18066;52.106;5.534;2023-04-03T14:57:11;4.20;;;1.20;;
18296;SDS011;18066;52.106;5.534;2023-04-03T14:59:41;2.47;;;1.30;;
18296;SDS011;18066;52.106;5.534;2023-04-03T15:02:22;4.87;;;1.20;;
18296;SDS011;18066;52.106;5.534;2023-04-03T15:04:54;4.15;;;1.42;;
18296;SDS011;18066;52.106;5.534;2023-04-03T15:07:25;1.97;;;1.10;;
18296;SDS011;18066;52.106;5.534;2023-04-03T15:09:54;2.37;;;1.17;;
18296;SDS011;18066;52.106;5.534;2023-04-03T15:12:21;1.63;;;1.00;;
18296;SDS011;18066;52.106;5.534;2023-04-03T15:14:48;2.43;;;1.07;;
18296;SDS011;18066;52.106;5.534;2023-04-03T15:17:16;3.47;;;1.35;;